sensor_id;sensor_type;location;lat;lon;timestamp;temperature;humidity
1936;DHT22;969;49.892;10.896;2024-01-16T00:02:21;20.70;53.60
1936;DHT22;969;49.892;10.896;2024-01-16T00:04:47;20.70;53.60
1936;DHT22;969;49.892;10.896;2024-01-16T00:07:13;20.70;53.50
1936;DHT22;969;49.892;10.896;2024-01-16T00:09:38;20.70;53.60
1936;DHT22;969;49.892;10.896;2024-01-16T00:12:04;20.70;53.60
1936;DHT22;969;49.892;10.896;2024-01-16T00:14:30;20.70;53.60
1936;DHT22;969;49.892;10.896;2024-01-16T00:16:55;20.70;53.60
1936;DHT22;969;49.892;10.896;2024-01-16T00:19:21;20.70;53.60
1936;DHT22;969;49.892;10.896;2024-01-16T00:21:46;20.60;53.60
1936;DHT22;969;49.892;10.896;2024-01-16T00:24:13;20.70;53.70
1936;DHT22;969;49.892;10.896;2024-01-16T00:26:39;20.70;53.70
1936;DHT22;969;49.892;10.896;2024-01-16T00:29:04;20.70;53.70
1936;DHT22;969;49.892;10.896;2024-01-16T00:31:30;20.70;53.70
1936;DHT22;969;49.892;10.896;2024-01-16T00:33:56;20.60;53.60
1936;DHT22;969;49.892;10.896;2024-01-16T00:36:21;20.60;53.60
1936;DHT22;969;49.892;10.896;2024-01-16T00:38:47;20.60;53.70
1936;DHT22;969;49.892;10.896;2024-01-16T00:41:13;20.70;53.70
1936;DHT22;969;49.892;10.896;2024-01-16T00:43:43;20.60;53.70
1936;DHT22;969;49.892;10.896;2024-01-16T00:46:09;20.70;53.70
1936;DHT22;969;49.892;10.896;2024-01-16T00:48:34;20.60;53.60
1936;DHT22;969;49.892;10.896;2024-01-16T00:51:00;20.60;53.70
1936;DHT22;969;49.892;10.896;2024-01-16T00:53:28;20.60;53.70
1936;DHT22;969;49.892;10.896;2024-01-16T00:55:54;20.60;53.70
1936;DHT22;969;49.892;10.896;2024-01-16T00:58:21;20.60;53.70
1936;DHT22;969;49.892;10.896;2024-01-16T01:00:47;20.60;53.70
1936;DHT22;969;49.892;10.896;2024-01-16T01:03:13;20.60;53.70
1936;DHT22;969;49.892;10.896;2024-01-16T01:05:38;20.60;53.60
1936;DHT22;969;49.892;10.896;2024-01-16T01:08:04;20.60;53.60
1936;DHT22;969;49.892;10.896;2024-01-16T01:10:30;20.60;53.60
1936;DHT22;969;49.892;10.896;2024-01-16T01:12:55;20.60;53.60
1936;DHT22;969;49.892;10.896;2024-01-16T01:15:21;20.60;53.60
1936;DHT22;969;49.892;10.896;2024-01-16T01:17:50;20.60;53.60
1936;DHT22;969;49.892;10.896;2024-01-16T01:20:18;20.60;53.60
1936;DHT22;969;49.892;10.896;2024-01-16T01:22:44;20.60;53.60
1936;DHT22;969;49.892;10.896;2024-01-16T01:25:11;20.60;53.60
1936;DHT22;969;49.892;10.896;2024-01-16T01:27:37;20.60;53.60
1936;DHT22;969;49.892;10.896;2024-01-16T01:30:03;20.60;53.70
1936;DHT22;969;49.892;10.896;2024-01-16T01:32:29;20.60;53.70
1936;DHT22;969;49.892;10.896;2024-01-16T01:34:55;20.60;53.70
1936;DHT22;969;49.892;10.896;2024-01-16T01:37:20;20.60;53.70
1936;DHT22;969;49.892;10.896;2024-01-16T01:39:46;20.50;53.60
1936;DHT22;969;49.892;10.896;2024-01-16T01:42:11;20.50;53.60
1936;DHT22;969;49.892;10.896;2024-01-16T01:44:37;20.60;53.70
1936;DHT22;969;49.892;10.896;2024-01-16T01:47:03;20.60;53.70
1936;DHT22;969;49.892;10.896;2024-01-16T01:49:31;20.60;53.70
1936;DHT22;969;49.892;10.896;2024-01-16T01:51:57;20.60;53.70
1936;DHT22;969;49.892;10.896;2024-01-16T01:54:23;20.50;53.70
1936;DHT22;969;49.892;10.896;2024-01-16T01:56:50;20.60;53.80
1936;DHT22;969;49.892;10.896;2024-01-16T01:59:18;20.60;53.70
1936;DHT22;969;49.892;10.896;2024-01-16T02:01:47;20.60;53.70
1936;DHT22;969;49.892;10.896;2024-01-16T02:04:17;20.60;53.70
1936;DHT22;969;49.892;10.896;2024-01-16T02:06:44;20.60;53.70
1936;DHT22;969;49.892;10.896;2024-01-16T02:09:10;20.50;53.70
1936;DHT22;969;49.892;10.896;2024-01-16T02:11:39;20.50;53.60
1936;DHT22;969;49.892;10.896;2024-01-16T02:14:04;20.50;53.60
1936;DHT22;969;49.892;10.896;2024-01-16T02:16:36;20.50;53.60
1936;DHT22;969;49.892;10.896;2024-01-16T02:19:05;20.50;53.60
1936;DHT22;969;49.892;10.896;2024-01-16T02:21:37;20.50;53.60
1936;DHT22;969;49.892;10.896;2024-01-16T02:24:05;20.50;53.60
1936;DHT22;969;49.892;10.896;2024-01-16T02:26:31;20.50;53.60
1936;DHT22;969;49.892;10.896;2024-01-16T02:28:57;20.50;53.60
1936;DHT22;969;49.892;10.896;2024-01-16T02:31:22;20.50;53.60
1936;DHT22;969;49.892;10.896;2024-01-16T02:33:48;20.50;54.20
1936;DHT22;969;49.892;10.896;2024-01-16T02:36:14;20.50;53.60
1936;DHT22;969;49.892;10.896;2024-01-16T02:38:39;20.50;53.60
1936;DHT22;969;49.892;10.896;2024-01-16T02:41:06;20.50;53.70
1936;DHT22;969;49.892;10.896;2024-01-16T02:43:32;20.50;53.70
1936;DHT22;969;49.892;10.896;2024-01-16T02:45:58;20.50;53.70
1936;DHT22;969;49.892;10.896;2024-01-16T02:48:23;20.50;53.70
1936;DHT22;969;49.892;10.896;2024-01-16T02:50:49;20.50;53.70
1936;DHT22;969;49.892;10.896;2024-01-16T02:53:14;20.50;53.70
1936;DHT22;969;49.892;10.896;2024-01-16T02:55:40;20.50;53.70
1936;DHT22;969;49.892;10.896;2024-01-16T02:58:06;20.50;53.70
1936;DHT22;969;49.892;10.896;2024-01-16T03:00:32;20.50;53.70
1936;DHT22;969;49.892;10.896;2024-01-16T03:02:57;20.50;53.70
1936;DHT22;969;49.892;10.896;2024-01-16T03:05:24;20.50;53.70
1936;DHT22;969;49.892;10.896;2024-01-16T03:07:49;20.50;53.70
1936;DHT22;969;49.892;10.896;2024-01-16T03:10:15;20.50;53.70
1936;DHT22;969;49.892;10.896;2024-01-16T03:12:41;20.50;53.70
1936;DHT22;969;49.892;10.896;2024-01-16T03:15:06;20.50;53.70
1936;DHT22;969;49.892;10.896;2024-01-16T03:17:32;20.50;53.70
1936;DHT22;969;49.892;10.896;2024-01-16T03:19:57;20.50;53.70
1936;DHT22;969;49.892;10.896;2024-01-16T03:22:23;20.40;53.60
1936;DHT22;969;49.892;10.896;2024-01-16T03:24:49;20.50;53.70
1936;DHT22;969;49.892;10.896;2024-01-16T03:27:16;20.50;53.70
1936;DHT22;969;49.892;10.896;2024-01-16T03:29:41;20.50;53.70
1936;DHT22;969;49.892;10.896;2024-01-16T03:32:07;20.50;53.70
1936;DHT22;969;49.892;10.896;2024-01-16T03:34:33;20.40;53.60
1936;DHT22;969;49.892;10.896;2024-01-16T03:36:59;20.50;53.70
1936;DHT22;969;49.892;10.896;2024-01-16T03:39:24;20.40;53.70
1936;DHT22;969;49.892;10.896;2024-01-16T03:41:50;20.40;53.70
1936;DHT22;969;49.892;10.896;2024-01-16T03:44:15;20.40;53.60
1936;DHT22;969;49.892;10.896;2024-01-16T03:46:41;20.40;53.60
1936;DHT22;969;49.892;10.896;2024-01-16T03:49:06;20.40;53.70
1936;DHT22;969;49.892;10.896;2024-01-16T03:51:32;20.40;53.60
1936;DHT22;969;49.892;10.896;2024-01-16T03:53:58;20.40;53.70
1936;DHT22;969;49.892;10.896;2024-01-16T03:56:24;20.40;53.70
1936;DHT22;969;49.892;10.896;2024-01-16T03:58:49;20.40;53.70
1936;DHT22;969;49.892;10.896;2024-01-16T04:01:15;20.40;53.70
1936;DHT22;969;49.892;10.896;2024-01-16T04:03:40;20.40;53.70
1936;DHT22;969;49.892;10.896;2024-01-16T04:06:16;20.40;53.70
1936;DHT22;969;49.892;10.896;2024-01-16T04:08:42;20.40;53.70
1936;DHT22;969;49.892;10.896;2024-01-16T04:11:12;20.40;53.70
1936;DHT22;969;49.892;10.896;2024-01-16T04:13:38;20.40;53.70
1936;DHT22;969;49.892;10.896;2024-01-16T04:16:04;20.40;53.70
1936;DHT22;969;49.892;10.896;2024-01-16T04:18:36;20.40;53.70
1936;DHT22;969;49.892;10.896;2024-01-16T04:21:03;20.40;53.70
1936;DHT22;969;49.892;10.896;2024-01-16T04:23:28;20.40;53.70
1936;DHT22;969;49.892;10.896;2024-01-16T04:25:54;20.40;53.70
1936;DHT22;969;49.892;10.896;2024-01-16T04:28:20;20.40;53.60
1936;DHT22;969;49.892;10.896;2024-01-16T04:30:45;20.40;53.70
1936;DHT22;969;49.892;10.896;2024-01-16T04:33:11;20.40;53.60
1936;DHT22;969;49.892;10.896;2024-01-16T04:35:36;20.40;53.60
1936;DHT22;969;49.892;10.896;2024-01-16T04:38:02;20.40;53.60
1936;DHT22;969;49.892;10.896;2024-01-16T04:40:28;20.40;53.60
1936;DHT22;969;49.892;10.896;2024-01-16T04:42:54;20.40;53.60
1936;DHT22;969;49.892;10.896;2024-01-16T04:45:19;20.40;53.60
1936;DHT22;969;49.892;10.896;2024-01-16T04:47:45;20.40;53.60
1936;DHT22;969;49.892;10.896;2024-01-16T04:50:11;20.40;53.60
1936;DHT22;969;49.892;10.896;2024-01-16T04:52:37;20.40;53.70
1936;DHT22;969;49.892;10.896;2024-01-16T04:55:03;20.30;53.60
1936;DHT22;969;49.892;10.896;2024-01-16T04:57:28;20.30;53.60
1936;DHT22;969;49.892;10.896;2024-01-16T04:59:54;20.40;53.60
1936;DHT22;969;49.892;10.896;2024-01-16T05:02:19;20.30;53.60
1936;DHT22;969;49.892;10.896;2024-01-16T05:04:45;20.40;53.70
1936;DHT22;969;49.892;10.896;2024-01-16T05:07:15;20.30;53.60
1936;DHT22;969;49.892;10.896;2024-01-16T05:09:40;20.30;53.60
1936;DHT22;969;49.892;10.896;2024-01-16T05:12:06;20.30;53.60
1936;DHT22;969;49.892;10.896;2024-01-16T05:14:32;20.40;53.70
1936;DHT22;969;49.892;10.896;2024-01-16T05:16:57;20.40;53.70
1936;DHT22;969;49.892;10.896;2024-01-16T05:19:23;20.40;53.70
1936;DHT22;969;49.892;10.896;2024-01-16T05:21:48;20.40;53.70
1936;DHT22;969;49.892;10.896;2024-01-16T05:24:14;20.40;53.70
1936;DHT22;969;49.892;10.896;2024-01-16T05:26:40;20.40;53.70
1936;DHT22;969;49.892;10.896;2024-01-16T05:29:05;20.40;53.60
1936;DHT22;969;49.892;10.896;2024-01-16T05:31:32;20.40;53.60
1936;DHT22;969;49.892;10.896;2024-01-16T05:33:57;20.40;53.60
1936;DHT22;969;49.892;10.896;2024-01-16T05:36:23;20.40;53.60
1936;DHT22;969;49.892;10.896;2024-01-16T05:38:50;20.40;53.60
1936;DHT22;969;49.892;10.896;2024-01-16T05:41:15;20.40;53.60
1936;DHT22;969;49.892;10.896;2024-01-16T05:43:41;20.40;53.60
1936;DHT22;969;49.892;10.896;2024-01-16T05:46:07;20.40;53.50
1936;DHT22;969;49.892;10.896;2024-01-16T05:48:32;20.40;53.80
1936;DHT22;969;49.892;10.896;2024-01-16T05:50:58;20.40;53.60
1936;DHT22;969;49.892;10.896;2024-01-16T05:53:24;20.40;53.60
1936;DHT22;969;49.892;10.896;2024-01-16T05:55:49;20.40;53.60
1936;DHT22;969;49.892;10.896;2024-01-16T05:58:15;20.40;53.60
1936;DHT22;969;49.892;10.896;2024-01-16T06:00:40;20.40;53.60
1936;DHT22;969;49.892;10.896;2024-01-16T06:03:06;20.40;53.60
1936;DHT22;969;49.892;10.896;2024-01-16T06:05:31;20.40;53.60
1936;DHT22;969;49.892;10.896;2024-01-16T06:07:57;20.40;53.60
1936;DHT22;969;49.892;10.896;2024-01-16T06:10:23;20.40;53.70
1936;DHT22;969;49.892;10.896;2024-01-16T06:12:48;20.40;53.60
1936;DHT22;969;49.892;10.896;2024-01-16T06:15:14;20.40;53.60
1936;DHT22;969;49.892;10.896;2024-01-16T06:17:40;20.40;53.60
1936;DHT22;969;49.892;10.896;2024-01-16T06:20:06;20.40;53.60
1936;DHT22;969;49.892;10.896;2024-01-16T06:22:32;20.40;53.60
1936;DHT22;969;49.892;10.896;2024-01-16T06:24:57;20.40;53.60
1936;DHT22;969;49.892;10.896;2024-01-16T06:27:23;20.40;53.60
1936;DHT22;969;49.892;10.896;2024-01-16T06:29:49;20.40;53.70
1936;DHT22;969;49.892;10.896;2024-01-16T06:32:16;20.50;53.80
1936;DHT22;969;49.892;10.896;2024-01-16T06:34:42;20.50;53.80
1936;DHT22;969;49.892;10.896;2024-01-16T06:37:07;20.50;53.80
1936;DHT22;969;49.892;10.896;2024-01-16T06:39:33;20.50;53.80
1936;DHT22;969;49.892;10.896;2024-01-16T06:42:00;20.50;53.80
1936;DHT22;969;49.892;10.896;2024-01-16T06:44:25;20.50;53.80
1936;DHT22;969;49.892;10.896;2024-01-16T06:46:51;20.60;53.80
1936;DHT22;969;49.892;10.896;2024-01-16T06:49:17;20.60;53.80
1936;DHT22;969;49.892;10.896;2024-01-16T06:51:42;20.60;53.80
1936;DHT22;969;49.892;10.896;2024-01-16T06:54:08;20.70;53.80
1936;DHT22;969;49.892;10.896;2024-01-16T06:56:34;20.70;53.80
1936;DHT22;969;49.892;10.896;2024-01-16T06:58:59;20.70;53.70
1936;DHT22;969;49.892;10.896;2024-01-16T07:01:26;20.70;53.70
1936;DHT22;969;49.892;10.896;2024-01-16T07:03:52;20.80;53.70
1936;DHT22;969;49.892;10.896;2024-01-16T07:06:18;20.80;53.70
1936;DHT22;969;49.892;10.896;2024-01-16T07:08:43;20.80;53.70
1936;DHT22;969;49.892;10.896;2024-01-16T07:11:09;20.80;53.60
1936;DHT22;969;49.892;10.896;2024-01-16T07:13:38;20.80;53.60
1936;DHT22;969;49.892;10.896;2024-01-16T07:16:04;20.80;53.60
1936;DHT22;969;49.892;10.896;2024-01-16T07:18:29;20.80;53.60
1936;DHT22;969;49.892;10.896;2024-01-16T07:20:55;20.80;53.60
1936;DHT22;969;49.892;10.896;2024-01-16T07:23:21;20.80;53.60
1936;DHT22;969;49.892;10.896;2024-01-16T07:25:46;20.90;53.60
1936;DHT22;969;49.892;10.896;2024-01-16T07:28:12;20.90;53.60
1936;DHT22;969;49.892;10.896;2024-01-16T07:30:38;20.90;53.60
1936;DHT22;969;49.892;10.896;2024-01-16T07:33:04;20.90;53.60
1936;DHT22;969;49.892;10.896;2024-01-16T07:35:29;20.90;53.60
1936;DHT22;969;49.892;10.896;2024-01-16T07:37:55;20.90;53.60
1936;DHT22;969;49.892;10.896;2024-01-16T07:40:20;20.90;53.60
1936;DHT22;969;49.892;10.896;2024-01-16T07:42:46;20.90;53.60
1936;DHT22;969;49.892;10.896;2024-01-16T07:45:12;20.90;53.60
1936;DHT22;969;49.892;10.896;2024-01-16T07:47:37;20.90;53.60
1936;DHT22;969;49.892;10.896;2024-01-16T07:50:03;20.90;53.60
1936;DHT22;969;49.892;10.896;2024-01-16T07:52:29;20.90;53.60
1936;DHT22;969;49.892;10.896;2024-01-16T07:54:55;20.90;53.60
1936;DHT22;969;49.892;10.896;2024-01-16T07:57:20;20.90;53.60
1936;DHT22;969;49.892;10.896;2024-01-16T07:59:46;20.90;53.60
1936;DHT22;969;49.892;10.896;2024-01-16T08:02:12;20.90;53.60
1936;DHT22;969;49.892;10.896;2024-01-16T08:04:37;20.90;54.10
1936;DHT22;969;49.892;10.896;2024-01-16T08:07:03;20.90;53.60
1936;DHT22;969;49.892;10.896;2024-01-16T08:09:29;20.90;53.60
1936;DHT22;969;49.892;10.896;2024-01-16T08:11:54;20.90;53.60
1936;DHT22;969;49.892;10.896;2024-01-16T08:14:20;20.90;53.60
1936;DHT22;969;49.892;10.896;2024-01-16T08:16:46;20.90;53.60
1936;DHT22;969;49.892;10.896;2024-01-16T08:19:13;20.90;53.70
1936;DHT22;969;49.892;10.896;2024-01-16T08:21:38;20.90;53.60
1936;DHT22;969;49.892;10.896;2024-01-16T08:24:04;20.90;53.60
1936;DHT22;969;49.892;10.896;2024-01-16T08:26:30;20.90;53.50
1936;DHT22;969;49.892;10.896;2024-01-16T08:28:55;20.90;53.60
1936;DHT22;969;49.892;10.896;2024-01-16T08:31:21;20.90;53.60
1936;DHT22;969;49.892;10.896;2024-01-16T08:33:46;21.00;53.60
1936;DHT22;969;49.892;10.896;2024-01-16T08:36:13;20.90;53.60
1936;DHT22;969;49.892;10.896;2024-01-16T08:38:39;21.00;53.60
1936;DHT22;969;49.892;10.896;2024-01-16T08:41:05;21.00;53.60
1936;DHT22;969;49.892;10.896;2024-01-16T08:43:34;21.00;53.60
1936;DHT22;969;49.892;10.896;2024-01-16T08:46:00;21.00;53.60
1936;DHT22;969;49.892;10.896;2024-01-16T08:48:25;21.00;53.60
1936;DHT22;969;49.892;10.896;2024-01-16T08:50:52;21.00;53.60
1936;DHT22;969;49.892;10.896;2024-01-16T08:53:19;21.00;53.60
1936;DHT22;969;49.892;10.896;2024-01-16T08:55:45;21.00;53.60
1936;DHT22;969;49.892;10.896;2024-01-16T08:58:10;21.00;53.70
1936;DHT22;969;49.892;10.896;2024-01-16T09:00:36;21.00;53.60
1936;DHT22;969;49.892;10.896;2024-01-16T09:03:03;21.00;53.60
1936;DHT22;969;49.892;10.896;2024-01-16T09:05:29;21.00;53.60
1936;DHT22;969;49.892;10.896;2024-01-16T09:07:55;21.00;53.60
1936;DHT22;969;49.892;10.896;2024-01-16T09:10:20;21.00;53.60
1936;DHT22;969;49.892;10.896;2024-01-16T09:12:46;21.00;53.60
1936;DHT22;969;49.892;10.896;2024-01-16T09:15:11;21.00;53.60
1936;DHT22;969;49.892;10.896;2024-01-16T09:17:37;21.00;53.60
1936;DHT22;969;49.892;10.896;2024-01-16T09:20:05;21.00;53.60
1936;DHT22;969;49.892;10.896;2024-01-16T09:22:32;20.90;53.50
1936;DHT22;969;49.892;10.896;2024-01-16T09:24:58;21.00;53.60
1936;DHT22;969;49.892;10.896;2024-01-16T09:27:23;20.90;53.60
1936;DHT22;969;49.892;10.896;2024-01-16T09:29:49;20.90;53.50
1936;DHT22;969;49.892;10.896;2024-01-16T09:32:14;21.00;53.70
1936;DHT22;969;49.892;10.896;2024-01-16T09:34:40;20.90;53.60
1936;DHT22;969;49.892;10.896;2024-01-16T09:37:06;20.90;53.60
1936;DHT22;969;49.892;10.896;2024-01-16T09:39:31;20.90;53.60
1936;DHT22;969;49.892;10.896;2024-01-16T09:42:00;20.90;53.60
1936;DHT22;969;49.892;10.896;2024-01-16T09:44:29;20.90;53.60
1936;DHT22;969;49.892;10.896;2024-01-16T09:46:55;21.00;53.70
1936;DHT22;969;49.892;10.896;2024-01-16T09:49:23;20.90;53.70
1936;DHT22;969;49.892;10.896;2024-01-16T09:51:49;20.90;53.70
1936;DHT22;969;49.892;10.896;2024-01-16T09:54:15;20.90;53.70
1936;DHT22;969;49.892;10.896;2024-01-16T09:56:44;20.90;54.30
1936;DHT22;969;49.892;10.896;2024-01-16T09:59:17;20.90;53.70
1936;DHT22;969;49.892;10.896;2024-01-16T10:01:45;20.90;53.70
1936;DHT22;969;49.892;10.896;2024-01-16T10:04:10;20.90;53.70
1936;DHT22;969;49.892;10.896;2024-01-16T10:06:38;20.90;53.70
1936;DHT22;969;49.892;10.896;2024-01-16T10:09:04;21.00;53.80
1936;DHT22;969;49.892;10.896;2024-01-16T10:11:30;20.90;53.70
1936;DHT22;969;49.892;10.896;2024-01-16T10:13:58;20.90;54.30
1936;DHT22;969;49.892;10.896;2024-01-16T10:16:56;20.90;53.70
1936;DHT22;969;49.892;10.896;2024-01-16T10:19:29;21.00;53.80
1936;DHT22;969;49.892;10.896;2024-01-16T10:22:02;20.90;53.70
1936;DHT22;969;49.892;10.896;2024-01-16T10:24:28;20.90;53.70
1936;DHT22;969;49.892;10.896;2024-01-16T10:27:00;20.90;53.70
1936;DHT22;969;49.892;10.896;2024-01-16T10:29:27;20.90;53.70
1936;DHT22;969;49.892;10.896;2024-01-16T10:31:52;20.90;53.70
1936;DHT22;969;49.892;10.896;2024-01-16T10:34:24;20.90;53.70
1936;DHT22;969;49.892;10.896;2024-01-16T10:36:52;21.00;53.80
1936;DHT22;969;49.892;10.896;2024-01-16T10:39:18;20.90;53.70
1936;DHT22;969;49.892;10.896;2024-01-16T10:42:00;20.90;53.70
1936;DHT22;969;49.892;10.896;2024-01-16T10:44:26;20.90;53.70
1936;DHT22;969;49.892;10.896;2024-01-16T10:47:09;20.90;53.70
1936;DHT22;969;49.892;10.896;2024-01-16T10:49:36;20.90;54.30
1936;DHT22;969;49.892;10.896;2024-01-16T10:52:02;20.90;53.70
1936;DHT22;969;49.892;10.896;2024-01-16T10:54:28;20.90;53.70
1936;DHT22;969;49.892;10.896;2024-01-16T10:56:55;20.90;53.70
1936;DHT22;969;49.892;10.896;2024-01-16T10:59:25;20.90;53.70
1936;DHT22;969;49.892;10.896;2024-01-16T11:01:53;20.90;53.70
1936;DHT22;969;49.892;10.896;2024-01-16T11:04:20;20.90;53.70
1936;DHT22;969;49.892;10.896;2024-01-16T11:06:47;20.90;53.70
1936;DHT22;969;49.892;10.896;2024-01-16T11:09:13;20.90;53.70
1936;DHT22;969;49.892;10.896;2024-01-16T11:11:44;20.90;53.70
1936;DHT22;969;49.892;10.896;2024-01-16T11:14:12;20.90;53.70
1936;DHT22;969;49.892;10.896;2024-01-16T11:16:39;20.90;53.80
1936;DHT22;969;49.892;10.896;2024-01-16T11:19:08;20.90;53.70
1936;DHT22;969;49.892;10.896;2024-01-16T11:21:34;20.90;53.80
1936;DHT22;969;49.892;10.896;2024-01-16T11:24:01;20.90;53.80
1936;DHT22;969;49.892;10.896;2024-01-16T11:26:31;20.90;53.80
1936;DHT22;969;49.892;10.896;2024-01-16T11:29:33;20.90;53.80
1936;DHT22;969;49.892;10.896;2024-01-16T11:31:59;20.90;53.80
1936;DHT22;969;49.892;10.896;2024-01-16T11:37:13;20.90;53.90
1936;DHT22;969;49.892;10.896;2024-01-16T11:39:39;20.90;53.80
1936;DHT22;969;49.892;10.896;2024-01-16T11:42:08;20.80;53.80
1936;DHT22;969;49.892;10.896;2024-01-16T11:47:18;20.90;53.80
1936;DHT22;969;49.892;10.896;2024-01-16T11:49:44;20.90;53.80
1936;DHT22;969;49.892;10.896;2024-01-16T11:52:09;20.90;53.80
1936;DHT22;969;49.892;10.896;2024-01-16T11:54:39;20.80;53.80
1936;DHT22;969;49.892;10.896;2024-01-16T11:57:31;20.80;53.60
1936;DHT22;969;49.892;10.896;2024-01-16T12:02:55;20.80;53.10
1936;DHT22;969;49.892;10.896;2024-01-16T12:05:21;20.80;53.10
1936;DHT22;969;49.892;10.896;2024-01-16T12:07:52;20.80;53.50
1936;DHT22;969;49.892;10.896;2024-01-16T12:10:22;20.70;52.90
1936;DHT22;969;49.892;10.896;2024-01-16T12:12:50;20.80;53.10
1936;DHT22;969;49.892;10.896;2024-01-16T12:15:20;20.70;52.90
1936;DHT22;969;49.892;10.896;2024-01-16T12:17:59;20.70;52.90
1936;DHT22;969;49.892;10.896;2024-01-16T12:20:32;20.70;52.90
1936;DHT22;969;49.892;10.896;2024-01-16T12:23:06;20.70;52.90
1936;DHT22;969;49.892;10.896;2024-01-16T12:25:41;20.70;53.00
1936;DHT22;969;49.892;10.896;2024-01-16T12:28:08;20.70;53.00
1936;DHT22;969;49.892;10.896;2024-01-16T12:30:37;20.70;53.00
1936;DHT22;969;49.892;10.896;2024-01-16T12:33:10;20.70;53.60
1936;DHT22;969;49.892;10.896;2024-01-16T12:35:40;20.70;53.00
1936;DHT22;969;49.892;10.896;2024-01-16T12:38:08;20.70;53.00
1936;DHT22;969;49.892;10.896;2024-01-16T12:40:39;20.70;53.00
1936;DHT22;969;49.892;10.896;2024-01-16T12:43:08;20.70;53.10
1936;DHT22;969;49.892;10.896;2024-01-16T12:45:37;20.70;53.00
1936;DHT22;969;49.892;10.896;2024-01-16T12:48:03;20.70;53.00
1936;DHT22;969;49.892;10.896;2024-01-16T12:50:30;20.70;53.00
1936;DHT22;969;49.892;10.896;2024-01-16T12:55:29;20.70;53.00
1936;DHT22;969;49.892;10.896;2024-01-16T12:58:20;20.70;53.00
1936;DHT22;969;49.892;10.896;2024-01-16T13:00:47;20.80;53.10
1936;DHT22;969;49.892;10.896;2024-01-16T13:03:19;20.70;53.10
1936;DHT22;969;49.892;10.896;2024-01-16T13:05:48;20.70;53.10
1936;DHT22;969;49.892;10.896;2024-01-16T13:08:20;20.70;53.10
1936;DHT22;969;49.892;10.896;2024-01-16T13:11:02;20.70;53.10
1936;DHT22;969;49.892;10.896;2024-01-16T13:13:28;20.70;53.10
1936;DHT22;969;49.892;10.896;2024-01-16T13:15:54;20.70;53.20
1936;DHT22;969;49.892;10.896;2024-01-16T13:18:25;20.70;53.10
1936;DHT22;969;49.892;10.896;2024-01-16T13:20:52;20.70;53.10
1936;DHT22;969;49.892;10.896;2024-01-16T13:23:18;20.70;53.10
1936;DHT22;969;49.892;10.896;2024-01-16T13:25:44;20.70;53.20
1936;DHT22;969;49.892;10.896;2024-01-16T13:28:11;20.70;53.30
1936;DHT22;969;49.892;10.896;2024-01-16T13:30:37;20.80;53.50
1936;DHT22;969;49.892;10.896;2024-01-16T13:33:04;20.80;53.50
1936;DHT22;969;49.892;10.896;2024-01-16T13:35:30;20.80;53.50
1936;DHT22;969;49.892;10.896;2024-01-16T13:37:56;20.80;53.50
1936;DHT22;969;49.892;10.896;2024-01-16T13:40:22;20.80;53.50
1936;DHT22;969;49.892;10.896;2024-01-16T13:42:48;20.80;53.50
1936;DHT22;969;49.892;10.896;2024-01-16T13:45:14;20.80;53.50
1936;DHT22;969;49.892;10.896;2024-01-16T13:47:39;20.80;53.50
1936;DHT22;969;49.892;10.896;2024-01-16T13:50:07;20.90;53.50
1936;DHT22;969;49.892;10.896;2024-01-16T13:52:34;20.90;53.50
1936;DHT22;969;49.892;10.896;2024-01-16T13:55:00;20.90;53.50
1936;DHT22;969;49.892;10.896;2024-01-16T13:57:29;20.90;53.50
1936;DHT22;969;49.892;10.896;2024-01-16T13:59:54;20.90;53.40
1936;DHT22;969;49.892;10.896;2024-01-16T14:02:20;20.90;53.50
1936;DHT22;969;49.892;10.896;2024-01-16T14:04:45;20.90;53.50
1936;DHT22;969;49.892;10.896;2024-01-16T14:07:11;20.90;53.40
1936;DHT22;969;49.892;10.896;2024-01-16T14:09:36;20.90;53.40
1936;DHT22;969;49.892;10.896;2024-01-16T14:12:02;20.90;53.40
1936;DHT22;969;49.892;10.896;2024-01-16T14:14:28;20.90;53.40
1936;DHT22;969;49.892;10.896;2024-01-16T14:16:53;20.90;53.40
1936;DHT22;969;49.892;10.896;2024-01-16T14:19:20;20.90;53.40
1936;DHT22;969;49.892;10.896;2024-01-16T14:21:45;20.90;53.40
1936;DHT22;969;49.892;10.896;2024-01-16T14:24:13;20.90;53.40
1936;DHT22;969;49.892;10.896;2024-01-16T14:26:41;20.90;53.40
1936;DHT22;969;49.892;10.896;2024-01-16T14:29:09;20.90;53.40
1936;DHT22;969;49.892;10.896;2024-01-16T14:31:35;20.90;53.40
1936;DHT22;969;49.892;10.896;2024-01-16T14:34:01;20.90;53.40
1936;DHT22;969;49.892;10.896;2024-01-16T14:36:26;20.90;53.40
1936;DHT22;969;49.892;10.896;2024-01-16T14:38:52;21.00;53.50
1936;DHT22;969;49.892;10.896;2024-01-16T14:41:17;21.00;53.50
1936;DHT22;969;49.892;10.896;2024-01-16T14:43:43;20.90;53.30
1936;DHT22;969;49.892;10.896;2024-01-16T14:46:09;20.90;53.30
1936;DHT22;969;49.892;10.896;2024-01-16T14:48:38;20.90;53.30
1936;DHT22;969;49.892;10.896;2024-01-16T14:51:08;21.00;53.30
1936;DHT22;969;49.892;10.896;2024-01-16T14:53:35;21.00;53.30
1936;DHT22;969;49.892;10.896;2024-01-16T14:56:01;20.90;53.30
1936;DHT22;969;49.892;10.896;2024-01-16T14:58:28;20.90;53.30
1936;DHT22;969;49.892;10.896;2024-01-16T15:00:54;21.00;53.30
1936;DHT22;969;49.892;10.896;2024-01-16T15:03:24;21.00;53.40
1936;DHT22;969;49.892;10.896;2024-01-16T15:05:50;20.90;53.30
1936;DHT22;969;49.892;10.896;2024-01-16T15:08:20;21.00;53.40
1936;DHT22;969;49.892;10.896;2024-01-16T15:10:47;21.00;53.50
1936;DHT22;969;49.892;10.896;2024-01-16T15:13:13;21.00;53.50
1936;DHT22;969;49.892;10.896;2024-01-16T15:15:38;21.00;53.50
1936;DHT22;969;49.892;10.896;2024-01-16T15:18:04;21.00;53.50
1936;DHT22;969;49.892;10.896;2024-01-16T15:20:30;21.00;53.50
1936;DHT22;969;49.892;10.896;2024-01-16T15:22:55;21.00;53.50
1936;DHT22;969;49.892;10.896;2024-01-16T15:25:22;21.00;53.50
1936;DHT22;969;49.892;10.896;2024-01-16T15:27:49;21.00;53.50
1936;DHT22;969;49.892;10.896;2024-01-16T15:30:20;21.00;53.50
1936;DHT22;969;49.892;10.896;2024-01-16T15:32:47;21.10;53.60
1936;DHT22;969;49.892;10.896;2024-01-16T15:35:14;21.10;53.60
1936;DHT22;969;49.892;10.896;2024-01-16T15:37:40;21.10;53.60
1936;DHT22;969;49.892;10.896;2024-01-16T15:40:08;21.10;53.60
1936;DHT22;969;49.892;10.896;2024-01-16T15:42:34;21.10;53.60
1936;DHT22;969;49.892;10.896;2024-01-16T15:45:05;21.10;53.60
1936;DHT22;969;49.892;10.896;2024-01-16T15:47:32;21.10;53.60
1936;DHT22;969;49.892;10.896;2024-01-16T15:49:58;21.10;54.10
1936;DHT22;969;49.892;10.896;2024-01-16T15:52:23;21.10;53.60
1936;DHT22;969;49.892;10.896;2024-01-16T15:54:49;21.20;53.70
1936;DHT22;969;49.892;10.896;2024-01-16T15:57:15;21.20;54.30
1936;DHT22;969;49.892;10.896;2024-01-16T15:59:40;21.20;53.70
1936;DHT22;969;49.892;10.896;2024-01-16T16:02:07;21.20;53.70
1936;DHT22;969;49.892;10.896;2024-01-16T16:04:34;21.20;53.70
1936;DHT22;969;49.892;10.896;2024-01-16T16:07:00;21.30;53.80
1936;DHT22;969;49.892;10.896;2024-01-16T16:09:26;21.20;53.70
1936;DHT22;969;49.892;10.896;2024-01-16T16:11:51;21.30;53.80